Time;durP1;ratioP1;P1;durP2;ratioP2;P2;SDS_P1;SDS_P2;PMS_P1;PMS_P2;Temp;Humidity;BMP_temperature;BMP_pressure;BME280_temperature;BME280_humidity;BME280_pressure;Samples;Min_cycle;Max_cycle;Signal;HPM_P1;HPM_P2
2023/09/01 00:02:22;;;;;;;188.35;174.82;;;10.70;80.40;;;;;;4990464;28;20042;-59
2023/09/01 00:04:48;;;;;;;136.07;126.00;;;10.70;80.50;;;;;;4999186;28;20046;-59
2023/09/01 00:07:14;;;;;;;114.50;105.20;;;10.70;80.50;;;;;;4974026;28;20457;-59
2023/09/01 00:09:39;;;;;;;122.28;113.20;;;10.70;80.50;;;;;;5004432;28;20058;-59
2023/09/01 00:12:05;;;;;;;192.65;178.93;;;10.70;80.50;;;;;;4987552;28;20145;-59
2023/09/01 00:14:31;;;;;;;87.85;81.07;;;10.70;80.50;;;;;;5001706;28;20042;-60
2023/09/01 00:16:57;;;;;;;180.15;167.48;;;10.70;80.50;;;;;;4994065;28;20073;-59
2023/09/01 00:19:23;;;;;;;86.38;79.63;;;10.70;80.60;;;;;;5008327;28;20053;-59
2023/09/01 00:21:50;;;;;;;130.35;120.85;;;10.70;80.50;;;;;;4989195;28;20097;-59
2023/09/01 00:24:16;;;;;;;187.27;174.07;;;10.70;80.40;;;;;;5005072;28;20042;-59
2023/09/01 00:26:42;;;;;;;203.05;189.38;;;10.60;80.40;;;;;;4995085;28;20046;-60
2023/09/01 00:29:07;;;;;;;151.02;140.57;;;10.60;80.40;;;;;;4993939;28;20058;-59
2023/09/01 00:31:34;;;;;;;155.75;145.30;;;10.50;80.30;;;;;;5008114;28;20450;-59
2023/09/01 00:33:59;;;;;;;123.38;114.05;;;10.50;80.30;;;;;;5007984;28;20069;-59
2023/09/01 00:36:25;;;;;;;135.15;125.60;;;10.50;80.40;;;;;;4984923;28;20233;-59
2023/09/01 00:38:51;;;;;;;120.43;111.43;;;10.60;80.80;;;;;;5005131;28;20556;-59
2023/09/01 00:41:16;;;;;;;74.65;68.82;;;10.50;80.40;;;;;;5002809;28;20099;-59
2023/09/01 00:43:42;;;;;;;82.13;75.70;;;10.50;80.80;;;;;;5000738;28;20085;-59
2023/09/01 00:46:08;;;;;;;174.20;161.75;;;10.50;80.70;;;;;;5000235;28;20165;-60
2023/09/01 00:48:34;;;;;;;126.55;116.97;;;10.50;80.80;;;;;;4999688;28;20053;-60
2023/09/01 00:51:01;;;;;;;112.57;104.47;;;10.50;81.00;;;;;;5008895;28;20144;-59
2023/09/01 00:53:26;;;;;;;112.93;104.45;;;10.40;81.00;;;;;;5006917;28;20420;-59
2023/09/01 00:55:53;;;;;;;91.75;84.25;;;10.40;81.00;;;;;;5001920;28;20053;-59
2023/09/01 00:58:19;;;;;;;97.95;90.15;;;10.50;81.00;;;;;;4986649;28;20082;-59
2023/09/01 01:00:45;;;;;;;106.65;98.20;;;10.40;81.10;;;;;;4988235;28;20046;-59
2023/09/01 01:03:11;;;;;;;93.65;86.40;;;10.40;81.10;;;;;;4998073;28;20054;-59
2023/09/01 01:05:40;;;;;;;133.52;123.65;;;10.40;81.10;;;;;;5004088;28;20053;-58
2023/09/01 01:08:18;;;;;;;81.45;74.97;;;10.30;81.20;;;;;;4972459;28;20064;-59
2023/09/01 01:11:09;;;;;;;92.20;84.78;;;10.30;81.20;;;;;;4998028;28;20485;-59
2023/09/01 01:13:39;;;;;;;38.00;34.47;;;10.20;81.40;;;;;;4970421;28;20100;-59
2023/09/01 01:16:07;;;;;;;93.88;86.70;;;10.20;81.40;;;;;;4990250;28;20048;-60
2023/09/01 01:18:35;;;;;;;62.97;57.42;;;10.20;81.40;;;;;;4999586;28;20053;-59
2023/09/01 01:21:17;;;;;;;46.47;42.33;;;10.20;81.40;;;;;;4994625;28;20129;-59
2023/09/01 01:23:44;;;;;;;50.33;45.90;;;10.20;81.40;;;;;;4996413;28;20101;-60
2023/09/01 01:26:15;;;;;;;63.45;58.33;;;10.20;81.50;;;;;;5000088;28;20050;-59
2023/09/01 01:28:40;;;;;;;74.25;68.05;;;10.20;81.50;;;;;;4992092;28;20053;-59
2023/09/01 01:31:06;;;;;;;68.25;62.78;;;10.20;81.60;;;;;;5000239;28;20408;-59
2023/09/01 01:33:50;;;;;;;66.80;61.22;;;10.20;81.60;;;;;;4999609;28;20092;-59
2023/09/01 01:36:32;;;;;;;36.50;33.40;;;10.20;81.60;;;;;;4977466;28;20129;-59
2023/09/01 01:39:15;;;;;;;36.13;32.80;;;10.20;81.50;;;;;;4973957;28;20129;-59
2023/09/01 01:41:52;;;;;;;30.63;27.02;;;10.20;81.50;;;;;;5002110;28;20056;-60
2023/09/01 01:44:22;;;;;;;37.50;34.20;;;10.10;81.50;;;;;;5006197;28;20050;-59
2023/09/01 01:46:50;;;;;;;35.05;31.95;;;10.10;81.50;;;;;;4955776;28;20545;-59
2023/09/01 01:49:16;;;;;;;42.58;38.60;;;10.10;81.60;;;;;;5006437;28;20528;-59
2023/09/01 01:51:41;;;;;;;40.17;36.42;;;10.10;81.60;;;;;;5006793;28;20049;-59
2023/09/01 01:54:07;;;;;;;73.68;67.78;;;10.00;81.70;;;;;;4994420;28;20050;-59
2023/09/01 01:56:33;;;;;;;88.05;81.97;;;10.00;81.50;;;;;;4974471;28;20065;-59
2023/09/01 01:58:59;;;;;;;40.03;36.92;;;10.00;81.20;;;;;;4990724;28;20057;-59
2023/09/01 02:01:28;;;;;;;100.15;93.25;;;9.80;81.00;;;;;;4987967;28;20053;-59
2023/09/01 02:03:53;;;;;;;15.20;13.82;;;9.70;80.90;;;;;;4993242;28;20401;-59
2023/09/01 02:06:19;;;;;;;25.67;23.65;;;9.60;80.80;;;;;;4993745;28;20050;-59
2023/09/01 02:08:45;;;;;;;59.03;55.15;;;9.50;80.80;;;;;;4991453;28;20508;-59
2023/09/01 02:11:10;;;;;;;90.20;84.47;;;9.50;80.80;;;;;;4996400;28;20536;-59
2023/09/01 02:13:36;;;;;;;12.85;11.70;;;9.40;80.70;;;;;;4997635;28;20049;-59
2023/09/01 02:16:05;;;;;;;15.13;13.73;;;9.40;80.70;;;;;;5007535;28;20137;-59
2023/09/01 02:18:32;;;;;;;9.60;8.40;;;9.30;80.80;;;;;;4996552;28;20081;-59
2023/09/01 02:20:58;;;;;;;8.98;8.15;;;9.20;80.90;;;;;;4997119;28;20053;-59
2023/09/01 02:23:24;;;;;;;14.00;12.52;;;9.20;80.90;;;;;;4987096;28;20385;-59
2023/09/01 02:25:50;;;;;;;17.63;15.93;;;9.20;81.10;;;;;;5011119;28;20081;-59
2023/09/01 02:28:15;;;;;;;16.80;14.13;;;9.20;81.40;;;;;;4985598;28;20497;-59
2023/09/01 02:30:41;;;;;;;21.43;19.27;;;9.20;81.50;;;;;;5007475;28;20042;-59
2023/09/01 02:33:07;;;;;;;17.87;14.77;;;9.20;81.70;;;;;;4993771;28;20352;-59
2023/09/01 02:35:40;;;;;;;21.10;19.07;;;9.20;82.10;;;;;;5008464;28;20076;-59
2023/09/01 02:38:05;;;;;;;18.27;15.80;;;9.30;82.40;;;;;;4995350;28;20049;-59
2023/09/01 02:40:31;;;;;;;18.10;11.60;;;9.30;82.30;;;;;;5004964;28;20061;-59
2023/09/01 02:42:57;;;;;;;13.77;10.63;;;9.30;82.40;;;;;;5003637;28;20139;-59
2023/09/01 02:45:22;;;;;;;19.17;14.63;;;9.40;82.50;;;;;;5010243;28;20503;-59
2023/09/01 02:47:48;;;;;;;19.05;10.95;;;9.40;82.50;;;;;;4990709;28;20042;-59
2023/09/01 02:50:14;;;;;;;24.48;20.27;;;9.40;82.60;;;;;;4990048;28;20047;-59
2023/09/01 02:52:40;;;;;;;40.23;37.43;;;9.40;82.30;;;;;;5005659;28;20072;-59
2023/09/01 02:55:06;;;;;;;59.60;55.40;;;9.40;81.90;;;;;;5002350;28;20042;-59
2023/09/01 02:57:32;;;;;;;23.93;21.73;;;9.40;81.70;;;;;;4992856;28;20042;-60
2023/09/01 02:59:58;;;;;;;13.17;9.53;;;9.40;81.70;;;;;;4991205;28;20069;-59
2023/09/01 03:02:24;;;;;;;16.17;10.33;;;9.40;81.70;;;;;;4989957;28;20144;-59
2023/09/01 03:04:52;;;;;;;16.53;11.37;;;9.30;81.70;;;;;;4992678;28;20485;-59
2023/09/01 03:07:17;;;;;;;24.37;20.93;;;9.30;82.10;;;;;;4975329;28;20117;-59
2023/09/01 03:09:44;;;;;;;22.73;16.27;;;9.40;82.40;;;;;;4995115;28;20190;-59
2023/09/01 03:12:09;;;;;;;17.13;14.53;;;9.40;82.40;;;;;;4990404;28;20458;-59
2023/09/01 03:14:35;;;;;;;19.53;16.50;;;9.40;82.80;;;;;;4997556;28;20416;-59
2023/09/01 03:17:01;;;;;;;26.87;20.83;;;9.40;83.00;;;;;;4987317;28;20581;-59
2023/09/01 03:19:27;;;;;;;29.70;25.33;;;9.50;83.10;;;;;;4989111;28;20478;-59
2023/09/01 03:21:53;;;;;;;25.80;22.47;;;9.50;83.20;;;;;;4990496;28;20058;-59
2023/09/01 03:24:18;;;;;;;20.63;17.47;;;9.60;83.10;;;;;;4993039;28;20515;-59
2023/09/01 03:26:44;;;;;;;23.13;17.60;;;9.60;83.20;;;;;;4985748;28;20057;-59
2023/09/01 03:29:10;;;;;;;23.77;19.20;;;9.60;83.20;;;;;;4981733;28;20058;-59
2023/09/01 03:31:35;;;;;;;20.60;18.27;;;9.70;83.20;;;;;;4999423;28;20191;-59
2023/09/01 03:34:03;;;;;;;25.93;19.47;;;9.70;83.20;;;;;;5009206;28;20054;-59
2023/09/01 03:36:29;;;;;;;38.93;35.37;;;9.70;83.10;;;;;;4986654;28;20058;-59
2023/09/01 03:38:55;;;;;;;20.13;18.13;;;9.70;82.90;;;;;;4991324;28;20054;-59
2023/09/01 03:41:20;;;;;;;17.83;14.90;;;9.60;82.70;;;;;;5004267;28;20053;-59
2023/09/01 03:43:46;;;;;;;13.20;8.70;;;9.60;82.60;;;;;;5000753;28;20060;-59
2023/09/01 03:46:12;;;;;;;15.57;9.90;;;9.50;82.40;;;;;;4980514;28;20477;-59
2023/09/01 03:48:37;;;;;;;15.30;10.57;;;9.50;82.30;;;;;;4983254;28;20042;-59
2023/09/01 03:51:10;;;;;;;16.10;8.70;;;9.50;82.30;;;;;;5000548;28;20042;-59
2023/09/01 03:53:37;;;;;;;25.47;23.23;;;9.50;82.50;;;;;;5006232;28;20054;-59
2023/09/01 03:56:17;;;;;;;13.03;10.00;;;9.40;82.40;;;;;;4990044;28;20078;-59
2023/09/01 03:58:44;;;;;;;16.57;8.03;;;9.40;82.20;;;;;;4999238;28;20401;-59
2023/09/01 04:01:11;;;;;;;19.07;12.20;;;9.40;82.30;;;;;;4978939;28;20058;-59
2023/09/01 04:03:44;;;;;;;15.80;13.23;;;9.30;82.60;;;;;;4994092;28;20042;-59
2023/09/01 04:06:10;;;;;;;17.03;15.10;;;9.40;82.80;;;;;;4989661;28;20490;-59
2023/09/01 04:08:36;;;;;;;18.50;14.17;;;9.30;83.00;;;;;;4981678;28;20413;-59
2023/09/01 04:11:05;;;;;;;21.37;14.77;;;9.40;83.00;;;;;;4991417;28;21322;-59
2023/09/01 04:13:32;;;;;;;21.20;15.67;;;9.40;82.90;;;;;;4986541;28;21718;-59
2023/09/01 04:15:58;;;;;;;23.17;21.07;;;9.40;83.00;;;;;;4984995;28;20069;-59
2023/09/01 04:18:24;;;;;;;13.20;7.93;;;9.40;83.00;;;;;;4971928;28;20049;-59
2023/09/01 04:20:51;;;;;;;15.67;10.17;;;9.30;82.80;;;;;;4990578;28;20121;-59
2023/09/01 04:23:16;;;;;;;34.07;29.27;;;9.30;83.00;;;;;;4978858;28;20046;-60
2023/09/01 04:25:46;;;;;;;21.10;18.93;;;9.40;83.30;;;;;;4981038;28;20043;-60
2023/09/01 04:28:13;;;;;;;21.07;16.43;;;9.40;83.20;;;;;;4972452;28;20054;-60
2023/09/01 04:30:39;;;;;;;17.93;14.43;;;9.40;83.40;;;;;;4987304;28;20397;-59
2023/09/01 04:33:05;;;;;;;19.63;13.93;;;9.40;83.50;;;;;;4991341;28;20185;-60
2023/09/01 04:35:32;;;;;;;18.03;14.57;;;9.40;83.30;;;;;;4988129;28;20536;-59
2023/09/01 04:37:58;;;;;;;25.67;21.40;;;9.40;83.30;;;;;;4975265;28;20259;-59
2023/09/01 04:40:25;;;;;;;18.67;14.93;;;9.40;83.40;;;;;;4998375;28;20046;-59
2023/09/01 04:42:51;;;;;;;20.50;17.73;;;9.40;83.50;;;;;;4989778;28;20056;-59
2023/09/01 04:45:17;;;;;;;19.10;15.30;;;9.40;83.50;;;;;;4994110;28;20045;-59
2023/09/01 04:47:43;;;;;;;22.53;11.73;;;9.40;83.50;;;;;;4975268;28;20097;-59
2023/09/01 04:50:09;;;;;;;17.73;12.80;;;9.40;83.40;;;;;;4988662;28;20457;-59
2023/09/01 04:52:35;;;;;;;14.77;11.77;;;9.40;83.30;;;;;;4991111;28;20046;-59
2023/09/01 04:55:01;;;;;;;16.48;11.68;;;9.40;83.20;;;;;;4992113;28;20585;-59
2023/09/01 04:57:27;;;;;;;18.63;15.27;;;9.40;83.30;;;;;;4983862;28;20061;-60
2023/09/01 04:59:53;;;;;;;30.20;27.17;;;9.40;83.50;;;;;;4989748;28;20050;-59
2023/09/01 05:02:19;;;;;;;20.63;18.73;;;9.40;83.50;;;;;;4986446;28;20112;-59
2023/09/01 05:04:44;;;;;;;13.67;8.27;;;9.40;83.10;;;;;;4994115;28;20405;-59
2023/09/01 05:07:10;;;;;;;17.70;16.20;;;9.40;83.20;;;;;;4972099;28;20294;-59
2023/09/01 05:09:36;;;;;;;22.90;20.70;;;9.30;83.00;;;;;;4996791;28;20047;-59
2023/09/01 05:12:02;;;;;;;6.60;5.20;;;9.20;82.80;;;;;;4984229;28;20050;-57
2023/09/01 05:14:28;;;;;;;5.37;4.30;;;9.20;82.70;;;;;;4984202;28;20049;-59
2023/09/01 05:16:54;;;;;;;6.40;3.23;;;9.10;82.60;;;;;;4973004;28;20042;-59
2023/09/01 05:19:20;;;;;;;6.60;5.73;;;9.00;82.60;;;;;;4979403;28;20482;-59
2023/09/01 05:21:46;;;;;;;58.93;55.23;;;9.00;82.90;;;;;;4978891;28;20054;-59
2023/09/01 05:24:11;;;;;;;17.93;16.73;;;9.00;82.70;;;;;;4972555;28;20051;-59
2023/09/01 05:26:37;;;;;;;19.43;17.87;;;9.00;82.50;;;;;;4971186;28;20121;-59
2023/09/01 05:29:03;;;;;;;4.77;2.67;;;8.90;82.50;;;;;;4994778;28;20062;-59
2023/09/01 05:31:28;;;;;;;5.07;3.80;;;8.90;82.50;;;;;;5011972;28;20139;-59
2023/09/01 05:33:54;;;;;;;6.37;5.20;;;8.90;82.70;;;;;;4983655;28;20046;-59
2023/09/01 05:36:20;;;;;;;50.93;47.83;;;9.00;82.90;;;;;;4975023;28;20052;-60
2023/09/01 05:38:45;;;;;;;17.17;15.90;;;9.00;82.70;;;;;;4977942;28;20039;-59
2023/09/01 05:41:13;;;;;;;12.03;10.93;;;9.00;82.70;;;;;;5002053;28;20054;-59
2023/09/01 05:43:39;;;;;;;56.63;51.60;;;9.00;82.60;;;;;;4984571;28;20120;-59
2023/09/01 05:46:07;;;;;;;33.07;30.20;;;9.00;82.70;;;;;;4988841;28;20133;-60
2023/09/01 05:48:34;;;;;;;25.80;18.27;;;9.10;82.90;;;;;;4982417;28;20541;-59
2023/09/01 05:51:00;;;;;;;43.50;35.47;;;9.20;83.20;;;;;;4988192;28;20572;-59
2023/09/01 05:53:27;;;;;;;52.13;38.93;;;9.40;83.30;;;;;;5007589;28;20129;-59
2023/09/01 05:55:53;;;;;;;55.17;40.50;;;9.50;83.50;;;;;;4985972;28;20287;-60
2023/09/01 05:58:18;;;;;;;52.33;42.30;;;9.70;83.60;;;;;;4972449;28;20076;-59
2023/09/01 06:00:44;;;;;;;30.57;26.30;;;10.00;83.60;;;;;;4984807;28;20058;-59
2023/09/01 06:03:10;;;;;;;56.77;51.70;;;10.10;83.70;;;;;;4976436;28;20062;-59
2023/09/01 06:05:36;;;;;;;49.95;41.50;;;10.30;83.70;;;;;;5002657;28;20074;-59
2023/09/01 06:08:02;;;;;;;96.45;85.88;;;10.40;83.70;;;;;;4962135;28;20108;-59
2023/09/01 06:10:28;;;;;;;87.65;73.30;;;10.60;83.50;;;;;;4984348;28;20057;-59
2023/09/01 06:12:54;;;;;;;222.90;200.15;;;10.60;83.50;;;;;;4992258;28;20047;-59
2023/09/01 06:15:20;;;;;;;131.23;118.35;;;10.70;83.40;;;;;;4996360;28;20073;-59
2023/09/01 06:17:46;;;;;;;134.73;122.90;;;10.80;83.30;;;;;;4984059;28;20074;-59
2023/09/01 06:20:12;;;;;;;133.07;121.65;;;10.90;83.30;;;;;;5000136;28;20262;-59
2023/09/01 06:22:37;;;;;;;133.85;122.43;;;11.00;83.20;;;;;;4993011;28;20367;-59
2023/09/01 06:25:04;;;;;;;159.10;146.45;;;11.10;83.20;;;;;;4992612;28;20059;-59
2023/09/01 06:27:29;;;;;;;145.05;133.10;;;11.20;83.10;;;;;;4974490;28;20612;-59
2023/09/01 06:29:56;;;;;;;150.20;138.10;;;11.30;82.90;;;;;;4991239;28;20125;-59
2023/09/01 06:32:23;;;;;;;285.88;265.27;;;11.40;83.00;;;;;;4990325;28;20092;-59
2023/09/01 06:34:49;;;;;;;256.92;237.88;;;11.50;83.00;;;;;;4988128;28;20397;-59
2023/09/01 06:37:15;;;;;;;229.77;212.75;;;11.50;83.20;;;;;;4975564;28;20057;-59
2023/09/01 06:39:41;;;;;;;245.13;227.15;;;11.70;83.30;;;;;;4992317;28;20053;-60
2023/09/01 06:42:07;;;;;;;273.83;253.18;;;11.90;83.30;;;;;;4986056;28;20051;-59
2023/09/01 06:44:33;;;;;;;300.17;278.30;;;11.90;83.10;;;;;;4994130;28;20158;-59
2023/09/01 06:46:58;;;;;;;275.42;255.18;;;12.00;83.10;;;;;;4990283;28;20042;-60
2023/09/01 06:49:24;;;;;;;376.48;349.15;;;12.10;83.20;;;;;;4990494;28;20077;-59
2023/09/01 06:51:50;;;;;;;417.77;386.98;;;12.20;82.90;;;;;;4989758;28;20058;-59
2023/09/01 06:54:15;;;;;;;373.95;346.58;;;12.20;82.90;;;;;;5002683;28;20099;-59
2023/09/01 06:56:41;;;;;;;330.60;306.00;;;12.20;82.90;;;;;;4990219;28;20050;-60
2023/09/01 06:59:07;;;;;;;366.27;339.25;;;12.30;82.90;;;;;;4990618;28;20605;-59
2023/09/01 07:01:33;;;;;;;451.17;418.65;;;12.40;82.90;;;;;;4987107;28;20465;-59
2023/09/01 07:03:58;;;;;;;466.65;432.48;;;12.50;82.80;;;;;;4971600;28;20108;-60
2023/09/01 07:06:24;;;;;;;395.10;364.00;;;12.50;82.80;;;;;;4990543;28;20199;-60
2023/09/01 07:08:50;;;;;;;442.75;410.52;;;12.50;82.80;;;;;;4985842;28;20050;-59
2023/09/01 07:11:19;;;;;;;455.83;420.73;;;12.60;82.80;;;;;;4990867;28;20093;-59
2023/09/01 07:13:46;;;;;;;550.03;507.67;;;12.70;82.90;;;;;;4979292;28;20120;-59
2023/09/01 07:16:13;;;;;;;465.52;432.55;;;12.70;82.50;;;;;;4990736;28;20058;-60
2023/09/01 07:18:39;;;;;;;461.08;428.30;;;12.80;82.30;;;;;;4963398;28;20050;-60
2023/09/01 07:21:05;;;;;;;443.23;409.90;;;12.90;82.20;;;;;;4966841;28;20077;-59
2023/09/01 07:23:31;;;;;;;473.35;440.25;;;12.90;82.10;;;;;;4973137;28;20089;-60
2023/09/01 07:25:59;;;;;;;487.75;450.40;;;12.90;82.00;;;;;;4974407;28;20042;-60
2023/09/01 07:28:24;;;;;;;466.23;431.65;;;13.00;81.60;;;;;;4956552;28;20077;-60
2023/09/01 07:30:51;;;;;;;461.35;425.77;;;13.00;81.50;;;;;;4972702;28;20509;-60
2023/09/01 07:33:17;;;;;;;458.10;422.25;;;13.10;81.40;;;;;;4972219;28;20088;-60
2023/09/01 07:35:50;;;;;;;470.40;437.60;;;13.10;81.30;;;;;;4989492;28;20065;-59
2023/09/01 07:38:16;;;;;;;502.63;463.15;;;13.30;81.00;;;;;;4956861;28;20485;-60
2023/09/01 07:40:42;;;;;;;455.48;423.48;;;13.30;81.10;;;;;;4975014;28;20178;-60
2023/09/01 07:43:08;;;;;;;542.58;501.73;;;13.30;81.20;;;;;;4954758;28;20050;-60
2023/09/01 07:45:34;;;;;;;467.00;433.45;;;13.40;81.10;;;;;;4972815;28;20069;-60
2023/09/01 07:48:00;;;;;;;509.58;471.90;;;13.50;81.10;;;;;;4957679;28;20103;-60
2023/09/01 07:50:30;;;;;;;454.92;423.65;;;13.50;80.80;;;;;;4972275;28;20070;-60
2023/09/01 07:52:56;;;;;;;483.48;447.42;;;13.60;80.80;;;;;;4971893;28;20046;-60
2023/09/01 07:55:22;;;;;;;474.88;439.77;;;13.60;80.90;;;;;;4972650;28;20062;-60
2023/09/01 07:57:48;;;;;;;582.47;536.05;;;13.70;80.90;;;;;;4957616;28;20476;-60
2023/09/01 08:00:14;;;;;;;505.52;468.35;;;13.70;80.90;;;;;;4970923;28;20133;-60
2023/09/01 08:02:41;;;;;;;487.90;452.30;;;13.80;81.10;;;;;;4969750;28;20050;-60
2023/09/01 08:05:07;;;;;;;501.13;463.85;;;13.90;81.20;;;;;;4973830;28;20054;-60
2023/09/01 08:07:33;;;;;;;501.42;465.02;;;13.90;81.20;;;;;;4956995;28;20061;-60
2023/09/01 08:09:58;;;;;;;520.80;479.00;;;14.00;81.30;;;;;;4974184;28;20042;-60
2023/09/01 08:12:27;;;;;;;528.70;488.48;;;14.00;80.90;;;;;;4988108;28;20053;-60
2023/09/01 08:14:53;;;;;;;511.63;473.25;;;14.10;80.50;;;;;;4974016;28;20590;-60
2023/09/01 08:17:18;;;;;;;503.02;465.17;;;14.10;80.40;;;;;;4957207;28;20058;-60
2023/09/01 08:19:48;;;;;;;534.50;494.92;;;14.20;80.40;;;;;;4974379;28;20058;-60
2023/09/01 08:22:15;;;;;;;551.42;508.75;;;14.20;80.50;;;;;;4972929;28;21448;-60
2023/09/01 08:24:40;;;;;;;532.38;492.25;;;14.30;80.40;;;;;;4973593;28;20066;-59
2023/09/01 08:27:06;;;;;;;624.00;572.45;;;14.40;80.30;;;;;;4956544;28;20053;-60
2023/09/01 08:29:32;;;;;;;554.53;510.98;;;14.40;80.30;;;;;;4972806;28;20069;-60
2023/09/01 08:32:00;;;;;;;553.38;509.02;;;14.50;80.50;;;;;;4973875;28;20042;-60
2023/09/01 08:34:27;;;;;;;574.40;528.65;;;14.60;80.40;;;;;;4972567;28;20116;-60
2023/09/01 08:36:52;;;;;;;571.97;526.45;;;14.60;80.30;;;;;;4958488;28;20060;-60
2023/09/01 08:39:18;;;;;;;590.42;543.08;;;14.70;80.20;;;;;;4974865;28;20050;-59
2023/09/01 08:41:45;;;;;;;614.08;566.10;;;14.70;80.10;;;;;;4972794;28;20576;-60
2023/09/01 08:44:12;;;;;;;635.20;585.78;;;14.80;79.40;;;;;;4972542;28;20413;-60
2023/09/01 08:46:39;;;;;;;589.00;541.67;;;14.80;79.60;;;;;;4958438;28;20485;-60
2023/09/01 08:49:05;;;;;;;597.47;550.03;;;14.90;79.70;;;;;;4971151;28;20116;-60
2023/09/01 08:51:32;;;;;;;576.58;530.97;;;14.90;79.60;;;;;;4971970;28;20501;-60
2023/09/01 08:53:59;;;;;;;648.85;592.00;;;15.00;79.20;;;;;;4972180;28;20146;-60
2023/09/01 08:56:24;;;;;;;584.60;538.97;;;15.00;79.00;;;;;;4961746;28;20054;-60
2023/09/01 08:58:50;;;;;;;632.20;581.38;;;15.00;78.80;;;;;;4968803;28;20069;-59
2023/09/01 09:01:16;;;;;;;609.03;559.85;;;15.00;78.70;;;;;;4973610;28;20120;-59
2023/09/01 09:03:42;;;;;;;564.10;520.95;;;15.10;78.70;;;;;;4967926;28;20512;-60
2023/09/01 09:06:12;;;;;;;654.13;597.28;;;15.10;78.30;;;;;;4960102;28;20080;-60
2023/09/01 09:08:38;;;;;;;578.65;532.63;;;15.20;78.30;;;;;;4955366;28;20537;-60
2023/09/01 09:11:15;;;;;;;650.45;592.85;;;15.20;78.00;;;;;;4972936;28;20052;-60
2023/09/01 09:13:40;;;;;;;660.83;604.10;;;15.20;77.80;;;;;;4971595;28;20528;-60
2023/09/01 09:16:15;;;;;;;604.90;556.95;;;15.20;77.90;;;;;;4967356;28;20086;-60
2023/09/01 09:18:43;;;;;;;583.75;539.70;;;15.30;78.00;;;;;;4966665;28;20169;-60
2023/09/01 09:21:30;;;;;;;643.17;589.33;;;15.30;77.90;;;;;;4972315;28;20409;-60
2023/09/01 09:23:58;;;;;;;674.10;613.03;;;15.30;77.60;;;;;;4971240;28;20062;-60
2023/09/01 09:26:28;;;;;;;597.00;550.28;;;15.30;78.00;;;;;;4960393;28;20504;-60
2023/09/01 09:28:54;;;;;;;660.35;604.15;;;15.40;77.70;;;;;;4968941;28;20050;-60
2023/09/01 09:31:37;;;;;;;642.63;588.92;;;15.40;77.60;;;;;;4972594;28;20057;-60
2023/09/01 09:34:19;;;;;;;626.78;575.38;;;15.40;77.30;;;;;;4954669;28;20077;-60
2023/09/01 09:36:47;;;;;;;542.05;502.30;;;15.50;77.00;;;;;;4956251;28;20078;-60
2023/09/01 09:39:26;;;;;;;585.47;540.83;;;15.50;77.10;;;;;;4972273;28;20041;-60
2023/09/01 09:41:53;;;;;;;618.15;570.10;;;15.50;77.20;;;;;;4973426;28;20038;-60
2023/09/01 09:44:36;;;;;;;639.88;584.50;;;15.60;77.00;;;;;;4970969;28;20054;-60
2023/09/01 09:47:10;;;;;;;718.70;652.55;;;15.60;76.50;;;;;;4953344;28;20054;-59
2023/09/01 09:49:39;;;;;;;776.50;695.85;;;15.60;76.60;;;;;;4972130;28;20525;-60
2023/09/01 09:52:08;;;;;;;655.05;598.35;;;15.60;76.40;;;;;;4971749;28;20137;-61
2023/09/01 09:54:37;;;;;;;764.35;686.17;;;15.60;76.30;;;;;;4971836;28;20104;-60
2023/09/01 09:57:06;;;;;;;720.72;651.17;;;15.70;76.50;;;;;;4954813;28;20058;-60
2023/09/01 09:59:57;;;;;;;690.15;628.80;;;15.80;76.40;;;;;;4970421;28;20042;-60
2023/09/01 10:02:29;;;;;;;799.50;716.78;;;15.80;76.30;;;;;;4969271;28;20138;-60
2023/09/01 10:04:57;;;;;;;805.53;720.35;;;15.80;76.00;;;;;;4969810;28;20054;-60
2023/09/01 10:07:23;;;;;;;818.17;732.35;;;15.80;75.70;;;;;;4954888;28;20053;-60
2023/09/01 10:09:49;;;;;;;786.45;711.47;;;15.80;75.70;;;;;;4968969;28;20413;-60
2023/09/01 10:12:15;;;;;;;725.20;653.92;;;15.80;75.80;;;;;;4971330;28;20056;-60
2023/09/01 10:14:43;;;;;;;804.92;724.55;;;15.80;75.90;;;;;;4971146;28;20047;-60
2023/09/01 10:17:12;;;;;;;744.08;671.28;;;15.80;76.00;;;;;;4951197;28;20055;-60
2023/09/01 10:19:37;;;;;;;711.67;641.53;;;15.80;75.90;;;;;;4968230;28;20148;-60
2023/09/01 10:22:03;;;;;;;791.10;709.80;;;15.80;75.70;;;;;;4969216;28;20557;-60
2023/09/01 10:24:29;;;;;;;725.10;660.30;;;15.80;75.40;;;;;;4969774;28;21423;-60
2023/09/01 10:27:08;;;;;;;783.80;708.58;;;15.90;75.20;;;;;;4952954;28;20318;-60
2023/09/01 10:29:35;;;;;;;745.58;672.53;;;16.00;74.70;;;;;;4965969;28;20165;-60
2023/09/01 10:32:19;;;;;;;815.65;734.80;;;16.00;75.00;;;;;;4968145;28;20084;-60
2023/09/01 10:34:52;;;;;;;690.65;626.42;;;16.00;74.70;;;;;;4967092;28;20054;-60
2023/09/01 10:37:30;;;;;;;789.10;711.78;;;16.00;74.70;;;;;;4953408;28;20046;-60
2023/09/01 10:39:57;;;;;;;757.92;686.40;;;16.10;74.50;;;;;;4968824;28;20049;-60
2023/09/01 10:42:48;;;;;;;725.03;663.10;;;16.10;74.30;;;;;;4969473;28;20078;-60
2023/09/01 10:45:14;;;;;;;764.25;689.65;;;16.20;73.20;;;;;;4971241;28;20145;-60
2023/09/01 10:47:45;;;;;;;752.22;681.42;;;16.20;73.60;;;;;;4953778;28;20042;-60
2023/09/01 10:50:12;;;;;;;760.15;688.35;;;16.30;73.00;;;;;;4970443;28;20196;-60
2023/09/01 10:52:39;;;;;;;753.35;682.13;;;16.40;72.60;;;;;;4969692;28;20136;-60
2023/09/01 10:55:08;;;;;;;750.15;680.65;;;16.40;72.30;;;;;;4972674;28;20053;-60
2023/09/01 10:57:42;;;;;;;812.60;731.90;;;16.40;71.70;;;;;;4954624;28;20065;-60
2023/09/01 11:00:30;;;;;;;786.90;709.08;;;16.50;71.70;;;;;;4971449;28;20464;-60
2023/09/01 11:03:31;;;;;;;761.08;687.33;;;16.60;71.10;;;;;;4970558;28;20078;-60
2023/09/01 11:06:03;;;;;;;754.40;680.83;;;16.60;70.70;;;;;;4970515;28;20069;-60
2023/09/01 11:08:32;;;;;;;802.95;727.95;;;16.60;71.10;;;;;;4973866;28;20050;-60
2023/09/01 11:11:10;;;;;;;796.72;720.35;;;16.70;71.50;;;;;;4968787;28;20141;-60
2023/09/01 11:13:36;;;;;;;803.95;728.45;;;16.70;71.60;;;;;;4969123;28;20416;-60
2023/09/01 11:16:11;;;;;;;788.00;715.92;;;16.70;72.20;;;;;;4972002;28;20402;-60
2023/09/01 11:18:36;;;;;;;779.88;705.85;;;16.80;72.00;;;;;;4964162;28;20060;-61
2023/09/01 11:21:06;;;;;;;788.88;714.03;;;16.80;71.60;;;;;;4971459;28;20054;-60
2023/09/01 11:23:33;;;;;;;773.85;697.42;;;16.90;71.20;;;;;;4969313;28;20124;-60
2023/09/01 11:26:00;;;;;;;848.92;767.05;;;16.90;70.30;;;;;;4972241;28;20054;-60
2023/09/01 11:28:27;;;;;;;744.78;677.28;;;16.90;70.50;;;;;;4954672;28;20553;-60
2023/09/01 11:31:02;;;;;;;794.08;719.25;;;17.00;70.30;;;;;;4972207;28;20582;-60
2023/09/01 11:33:33;;;;;;;896.17;807.83;;;17.00;70.50;;;;;;4969388;28;20493;-60
2023/09/01 11:36:07;;;;;;;798.28;724.58;;;17.20;70.70;;;;;;4970502;28;20058;-60
2023/09/01 11:38:37;;;;;;;772.58;700.88;;;17.20;70.80;;;;;;4962980;28;20058;-60
2023/09/01 11:41:12;;;;;;;757.25;684.53;;;17.40;70.20;;;;;;4970881;28;20053;-60
2023/09/01 11:43:39;;;;;;;793.95;717.17;;;17.40;69.80;;;;;;4971031;28;20050;-60
2023/09/01 11:46:05;;;;;;;833.85;752.70;;;17.40;70.10;;;;;;4970681;28;20584;-60
2023/09/01 11:48:31;;;;;;;764.35;691.20;;;17.50;69.60;;;;;;4963802;28;20046;-60
2023/09/01 11:50:58;;;;;;;803.38;726.35;;;17.50;69.20;;;;;;4973383;28;20057;-60
2023/09/01 11:53:26;;;;;;;745.10;675.15;;;17.50;68.90;;;;;;4969799;28;20512;-60
2023/09/01 11:55:52;;;;;;;787.58;710.55;;;17.50;68.90;;;;;;4971382;28;20061;-60
2023/09/01 11:58:18;;;;;;;866.90;779.35;;;17.50;68.70;;;;;;4957356;28;20065;-60
2023/09/01 12:00:44;;;;;;;797.70;722.47;;;17.50;68.90;;;;;;4974777;28;21330;-60
2023/09/01 12:03:11;;;;;;;969.92;864.75;;;17.50;68.90;;;;;;4972728;28;20417;-60
2023/09/01 12:05:39;;;;;;;791.53;717.63;;;17.50;69.20;;;;;;4973748;28;20879;-60
2023/09/01 12:08:08;;;;;;;802.97;727.15;;;17.60;69.30;;;;;;4955544;28;20061;-61
2023/09/01 12:10:34;;;;;;;797.92;723.75;;;17.50;69.40;;;;;;4972729;28;20412;-60
2023/09/01 12:13:04;;;;;;;823.85;744.70;;;17.60;69.40;;;;;;4973255;28;20061;-60
2023/09/01 12:15:29;;;;;;;798.83;724.45;;;17.60;69.00;;;;;;4973992;28;20137;-60
2023/09/01 12:17:55;;;;;;;820.17;741.30;;;17.50;69.20;;;;;;4954425;28;20108;-60
2023/09/01 12:20:21;;;;;;;808.67;733.13;;;17.50;69.60;;;;;;4971480;28;20059;-60
2023/09/01 12:22:48;;;;;;;791.97;716.10;;;17.50;69.50;;;;;;4971175;28;20050;-60
2023/09/01 12:25:14;;;;;;;794.42;719.25;;;17.60;69.70;;;;;;4969619;28;20567;-60